createdAt,value
2022-08-03T00:00:08.602Z,989.09
2022-08-03T00:01:08.588Z,989.09
2022-08-03T00:02:08.589Z,989.09
2022-08-03T00:03:08.654Z,989.08
2022-08-03T00:04:08.558Z,989.09
2022-08-03T00:05:08.568Z,989.08
2022-08-03T00:06:08.539Z,989.08
2022-08-03T00:07:08.553Z,989.07
2022-08-03T00:08:08.526Z,989.07
2022-08-03T00:09:08.550Z,989.06
2022-08-03T00:10:08.538Z,989.06
2022-08-03T00:11:08.511Z,989.05
2022-08-03T00:12:08.512Z,989.05
2022-08-03T00:13:08.569Z,989.04
2022-08-03T00:14:08.479Z,989.05
2022-08-03T00:15:11.244Z,989.04
2022-08-03T00:16:09.475Z,989.04
2022-08-03T00:17:08.473Z,989.03
2022-08-03T00:18:08.474Z,989.03
2022-08-03T00:19:08.443Z,989.03
2022-08-03T00:20:08.427Z,989.03
2022-08-03T00:21:08.441Z,989.04
2022-08-03T00:22:08.417Z,989.03
2022-08-03T00:23:08.418Z,989.03
2022-08-03T00:24:08.396Z,989.02
2022-08-03T00:25:08.394Z,989.01
2022-08-03T00:26:08.413Z,989.02
2022-08-03T00:27:08.402Z,989.03
2022-08-03T00:28:08.376Z,989.03
2022-08-03T00:29:08.354Z,989.03
2022-08-03T00:30:08.439Z,989.04
2022-08-03T00:31:08.397Z,989.04
2022-08-03T00:32:09.651Z,989.05
2022-08-03T00:33:08.438Z,989.06
2022-08-03T00:34:08.323Z,989.07
2022-08-03T00:35:09.273Z,989.08
2022-08-03T00:36:08.361Z,989.08
2022-08-03T00:37:08.294Z,989.08
2022-08-03T00:38:08.315Z,989.08
2022-08-03T00:39:08.292Z,989.08
2022-08-03T00:40:08.277Z,989.08
2022-08-03T00:41:08.266Z,989.09
2022-08-03T00:42:08.246Z,989.08
2022-08-03T00:43:08.260Z,989.07
2022-08-03T00:44:08.244Z,989.07
2022-08-03T00:45:08.224Z,989.07
2022-08-03T00:46:08.214Z,989.06
2022-08-03T00:47:08.218Z,989.04
2022-08-03T00:48:29.549Z,989.03
2022-08-03T00:49:09.226Z,989.02
2022-08-03T00:50:08.187Z,989.01
2022-08-03T00:51:08.170Z,989.00
2022-08-03T00:52:09.799Z,989.00
2022-08-03T00:53:08.176Z,989.00
2022-08-03T00:54:08.164Z,989.01
2022-08-03T00:55:08.124Z,989.02
2022-08-03T00:56:08.137Z,989.05
2022-08-03T00:57:08.110Z,989.06
2022-08-03T00:58:08.102Z,989.08
2022-08-03T00:59:08.098Z,989.07
2022-08-03T01:00:08.146Z,989.07
2022-08-03T01:01:08.140Z,989.07
2022-08-03T01:02:08.122Z,989.06
2022-08-03T01:03:08.073Z,989.06
2022-08-03T01:04:08.102Z,989.05
2022-08-03T01:05:08.060Z,989.04
2022-08-03T01:06:08.248Z,989.04
2022-08-03T01:07:10.722Z,989.05
2022-08-03T01:08:08.042Z,989.05
2022-08-03T01:09:08.021Z,989.05
2022-08-03T01:10:08.017Z,989.05
2022-08-03T01:11:08.006Z,989.05
2022-08-03T01:12:08.013Z,989.04
2022-08-03T01:13:13.966Z,989.04
2022-08-03T01:14:18.248Z,989.03
2022-08-03T01:15:08.970Z,989.02
2022-08-03T01:16:07.962Z,989.01
2022-08-03T01:17:08.012Z,989.00
2022-08-03T01:18:07.943Z,988.99
2022-08-03T01:19:08.027Z,988.99
2022-08-03T01:20:07.928Z,988.98
2022-08-03T01:21:07.923Z,988.98
2022-08-03T01:22:07.912Z,988.98
2022-08-03T01:23:07.908Z,988.99
2022-08-03T01:24:07.892Z,988.99
2022-08-03T01:25:07.959Z,989.00
2022-08-03T01:26:07.871Z,989.00
2022-08-03T01:27:07.865Z,988.99
2022-08-03T01:28:07.843Z,988.98
2022-08-03T01:29:07.851Z,988.96
2022-08-03T01:30:07.940Z,988.96
2022-08-03T01:31:07.849Z,988.95
2022-08-03T01:33:00.249Z,988.95
2022-08-03T01:33:09.348Z,988.96
2022-08-03T01:34:09.290Z,988.95
2022-08-03T01:35:08.806Z,988.95
2022-08-03T01:36:07.795Z,988.96
2022-08-03T01:37:07.808Z,988.98
2022-08-03T01:38:07.773Z,988.99
2022-08-03T01:39:07.766Z,988.99
2022-08-03T01:40:07.753Z,988.98
2022-08-03T01:41:07.738Z,988.98
2022-08-03T01:42:07.768Z,988.98
2022-08-03T01:43:07.723Z,989.00
2022-08-03T01:44:29.571Z,989.01
2022-08-03T01:45:08.737Z,989.01
2022-08-03T01:46:07.694Z,989.01
2022-08-03T01:47:07.700Z,989.01
2022-08-03T01:48:07.725Z,989.02
2022-08-03T01:49:09.354Z,989.01
2022-08-03T01:50:07.694Z,989.00
2022-08-03T01:51:07.657Z,988.98
2022-08-03T01:52:07.696Z,988.96
2022-08-03T01:53:07.649Z,988.96
2022-08-03T01:54:07.642Z,988.95
2022-08-03T01:55:07.623Z,988.96
2022-08-03T01:56:07.640Z,988.96
2022-08-03T01:57:07.595Z,988.98
2022-08-03T01:58:07.595Z,988.98
2022-08-03T01:59:07.590Z,988.99
2022-08-03T02:00:07.593Z,988.99
2022-08-03T02:01:07.613Z,988.99
2022-08-03T02:02:32.145Z,988.99
2022-08-03T02:03:08.554Z,989.00
2022-08-03T02:04:07.536Z,988.99
2022-08-03T02:05:10.654Z,988.98
2022-08-03T02:07:02.103Z,988.97
2022-08-03T02:07:08.524Z,988.97
2022-08-03T02:08:07.741Z,988.97
2022-08-03T02:09:07.518Z,988.98
2022-08-03T02:10:07.519Z,988.98
2022-08-03T02:11:07.526Z,988.97
2022-08-03T02:12:07.537Z,988.96
2022-08-03T02:13:07.469Z,988.96
2022-08-03T02:14:07.454Z,988.96
2022-08-03T02:15:07.451Z,988.96
2022-08-03T02:16:07.499Z,988.96
2022-08-03T02:17:07.432Z,988.96
2022-08-03T02:18:07.421Z,988.96
2022-08-03T02:19:07.408Z,988.96
2022-08-03T02:20:07.416Z,988.96
2022-08-03T02:21:11.187Z,988.96
2022-08-03T02:22:07.438Z,988.95
2022-08-03T02:23:07.382Z,988.95
2022-08-03T02:24:07.383Z,988.95
2022-08-03T02:25:07.380Z,988.93
2022-08-03T02:26:07.357Z,988.93
2022-08-03T02:27:07.345Z,988.93
2022-08-03T02:28:07.380Z,988.93
2022-08-03T02:29:07.323Z,988.92
2022-08-03T02:30:07.309Z,988.91
2022-08-03T02:31:07.307Z,988.91
2022-08-03T02:32:07.303Z,988.91
2022-08-03T02:33:07.321Z,988.90
2022-08-03T02:34:07.310Z,988.90
2022-08-03T02:35:07.277Z,988.90
2022-08-03T02:36:07.254Z,988.90
2022-08-03T02:37:07.282Z,988.89
2022-08-03T02:38:07.243Z,988.89
2022-08-03T02:39:07.246Z,988.89
2022-08-03T02:40:07.251Z,988.88
2022-08-03T02:41:07.208Z,988.88
2022-08-03T02:42:07.252Z,988.88
2022-08-03T02:43:07.201Z,988.87
2022-08-03T02:44:07.504Z,988.87
2022-08-03T02:45:07.317Z,988.86
2022-08-03T02:46:07.237Z,988.86
2022-08-03T02:47:07.178Z,988.86
2022-08-03T02:48:07.185Z,988.85
2022-08-03T02:49:41.186Z,988.83
2022-08-03T02:50:08.204Z,988.82
2022-08-03T02:51:07.132Z,988.82
2022-08-03T02:52:07.126Z,988.81
2022-08-03T02:53:08.110Z,988.81
2022-08-03T02:54:07.105Z,988.80
2022-08-03T02:55:07.110Z,988.80
2022-08-03T02:56:07.106Z,988.80
2022-08-03T02:57:07.104Z,988.80
2022-08-03T02:58:07.113Z,988.80
2022-08-03T02:59:07.060Z,988.79
2022-08-03T03:00:07.065Z,988.79
2022-08-03T03:01:07.086Z,988.79
2022-08-03T03:02:07.067Z,988.79
2022-08-03T03:03:07.056Z,988.78
2022-08-03T03:04:07.028Z,988.78
2022-08-03T03:05:52.134Z,988.77
2022-08-03T03:06:08.014Z,988.76
2022-08-03T03:07:07.006Z,988.75
2022-08-03T03:08:18.612Z,988.75
2022-08-03T03:09:07.973Z,988.74
2022-08-03T03:10:06.969Z,988.74
2022-08-03T03:11:07.009Z,988.73
2022-08-03T03:12:06.944Z,988.74
2022-08-03T03:13:06.953Z,988.75
2022-08-03T03:14:06.937Z,988.76
2022-08-03T03:15:06.916Z,988.78
2022-08-03T03:16:06.947Z,988.80
2022-08-03T03:17:06.906Z,988.79
2022-08-03T03:18:06.897Z,988.78
2022-08-03T03:19:06.911Z,988.77
2022-08-03T03:20:06.885Z,988.75
2022-08-03T03:21:07.765Z,988.74
2022-08-03T03:22:06.887Z,988.73
2022-08-03T03:23:06.859Z,988.73
2022-08-03T03:24:06.842Z,988.74
2022-08-03T03:25:06.857Z,988.75
2022-08-03T03:26:06.824Z,988.75
2022-08-03T03:27:06.842Z,988.75
2022-08-03T03:28:06.813Z,988.75
2022-08-03T03:29:06.791Z,988.76
2022-08-03T03:30:06.783Z,988.77
2022-08-03T03:31:06.880Z,988.76
2022-08-03T03:32:09.283Z,988.77
2022-08-03T03:33:06.796Z,988.78
2022-08-03T03:34:06.793Z,988.79
2022-08-03T03:35:06.765Z,988.80
2022-08-03T03:36:06.738Z,988.80
2022-08-03T03:37:06.728Z,988.81
2022-08-03T03:38:06.736Z,988.82
2022-08-03T03:39:15.893Z,988.82
2022-08-03T03:40:07.715Z,988.83
2022-08-03T03:41:06.692Z,988.83
2022-08-03T03:42:06.693Z,988.82
2022-08-03T03:43:06.682Z,988.82
2022-08-03T03:44:06.677Z,988.82
2022-08-03T03:45:06.684Z,988.82
2022-08-03T03:46:06.656Z,988.82
2022-08-03T03:47:06.650Z,988.82
2022-08-03T03:48:06.627Z,988.82
2022-08-03T03:49:06.679Z,988.83
2022-08-03T03:50:06.647Z,988.84
2022-08-03T03:51:06.596Z,988.85
2022-08-03T03:52:06.602Z,988.85
2022-08-03T03:53:06.623Z,988.83
2022-08-03T03:54:06.581Z,988.83
2022-08-03T03:55:06.565Z,988.82
2022-08-03T03:56:06.563Z,988.81
2022-08-03T03:57:06.586Z,988.81
2022-08-03T03:58:06.546Z,988.81
2022-08-03T03:59:06.549Z,988.82
2022-08-03T04:00:06.528Z,988.83
2022-08-03T04:01:06.557Z,988.84
2022-08-03T04:02:06.522Z,988.84
2022-08-03T04:03:06.556Z,988.84
2022-08-03T04:04:06.505Z,988.84
2022-08-03T04:05:06.482Z,988.83
2022-08-03T04:06:06.489Z,988.83
2022-08-03T04:07:06.464Z,988.83
2022-08-03T04:08:06.514Z,988.83
2022-08-03T04:09:06.448Z,988.84
2022-08-03T04:10:08.855Z,988.85
2022-08-03T04:11:07.424Z,988.85
2022-08-03T04:12:06.427Z,988.85
2022-08-03T04:13:06.416Z,988.85
2022-08-03T04:14:06.446Z,988.85
2022-08-03T04:15:06.414Z,988.85
2022-08-03T04:16:06.399Z,988.85
2022-08-03T04:17:06.386Z,988.85
2022-08-03T04:18:06.406Z,988.85
2022-08-03T04:19:06.426Z,988.86
2022-08-03T04:20:06.391Z,988.87
2022-08-03T04:21:06.369Z,988.89
2022-08-03T04:22:06.342Z,988.90
2022-08-03T04:23:13.646Z,988.91
2022-08-03T04:24:07.335Z,988.91
2022-08-03T04:25:06.361Z,988.91
2022-08-03T04:26:06.336Z,988.92
2022-08-03T04:27:06.300Z,988.92
2022-08-03T04:28:27.405Z,988.91
2022-08-03T04:29:07.295Z,988.91
2022-08-03T04:30:06.275Z,988.91
2022-08-03T04:31:06.299Z,988.91
2022-08-03T04:32:06.287Z,988.92
2022-08-03T04:33:06.280Z,988.92
2022-08-03T04:34:06.246Z,988.92
2022-08-03T04:35:06.710Z,988.92
2022-08-03T04:36:06.285Z,988.93
2022-08-03T04:37:06.214Z,988.95
2022-08-03T04:38:06.213Z,988.96
2022-08-03T04:39:06.207Z,988.97
2022-08-03T04:40:06.193Z,988.98
2022-08-03T04:41:06.174Z,988.98
2022-08-03T04:42:08.364Z,988.98
2022-08-03T04:43:06.167Z,988.98
2022-08-03T04:44:06.150Z,988.97
2022-08-03T04:45:06.143Z,988.97
2022-08-03T04:46:06.146Z,988.98
2022-08-03T04:47:06.129Z,988.97
2022-08-03T04:48:06.145Z,988.98
2022-08-03T04:49:06.357Z,988.99
2022-08-03T04:50:10.417Z,988.99
2022-08-03T04:51:07.127Z,989.00
2022-08-03T04:52:06.094Z,989.01
2022-08-03T04:53:06.090Z,989.02
2022-08-03T04:54:06.168Z,989.02
2022-08-03T04:55:06.064Z,989.03
2022-08-03T04:56:06.070Z,989.04
2022-08-03T04:57:06.072Z,989.03
2022-08-03T04:58:06.035Z,989.04
2022-08-03T04:59:06.054Z,989.04
2022-08-03T05:00:06.015Z,989.06
2022-08-03T05:01:06.006Z,989.07
2022-08-03T05:02:06.078Z,989.08
2022-08-03T05:03:23.962Z,989.09
2022-08-03T05:04:12.260Z,989.09
2022-08-03T05:05:05.983Z,989.08
2022-08-03T05:06:09.675Z,989.08
2022-08-03T05:07:11.663Z,989.07
2022-08-03T05:08:07.121Z,989.07
2022-08-03T05:09:05.935Z,989.08
2022-08-03T05:10:15.681Z,989.09
2022-08-03T05:11:06.965Z,989.10
2022-08-03T05:12:05.922Z,989.10
2022-08-03T05:13:05.927Z,989.09
2022-08-03T05:14:05.948Z,989.08
2022-08-03T05:15:12.883Z,989.08
2022-08-03T05:16:05.875Z,989.08
2022-08-03T05:17:05.856Z,989.08
2022-08-03T05:18:08.568Z,989.08
2022-08-03T05:19:06.886Z,989.08
2022-08-03T05:20:05.844Z,989.07
2022-08-03T05:21:05.842Z,989.07
2022-08-03T05:22:05.829Z,989.05
2022-08-03T05:23:05.814Z,989.04
2022-08-03T05:24:05.804Z,989.03
2022-08-03T05:25:05.817Z,989.02
2022-08-03T05:26:05.806Z,989.02
2022-08-03T05:27:05.778Z,989.02
2022-08-03T05:28:05.770Z,989.01
2022-08-03T05:29:05.755Z,989.01
2022-08-03T05:30:30.429Z,989.01
2022-08-03T05:31:06.789Z,989.02
2022-08-03T05:32:08.343Z,989.02
2022-08-03T05:33:05.732Z,989.02
2022-08-03T05:34:05.737Z,989.03
2022-08-03T05:35:57.474Z,989.02
2022-08-03T05:36:06.728Z,989.02
2022-08-03T05:37:05.703Z,989.00
2022-08-03T05:38:05.680Z,989.00
2022-08-03T05:39:05.675Z,988.99
2022-08-03T05:40:05.706Z,988.99
2022-08-03T05:41:21.489Z,988.99
2022-08-03T05:42:06.688Z,988.98
2022-08-03T05:43:05.639Z,988.98
2022-08-03T05:44:05.626Z,988.98
2022-08-03T05:45:05.655Z,989.00
2022-08-03T05:46:12.879Z,989.00
2022-08-03T05:47:06.638Z,989.02
2022-08-03T05:48:05.659Z,989.02
2022-08-03T05:49:05.641Z,989.02
2022-08-03T05:50:05.584Z,989.01
2022-08-03T05:51:05.568Z,989.00
2022-08-03T05:52:21.146Z,988.99
2022-08-03T05:53:06.643Z,988.98
2022-08-03T05:54:05.555Z,988.97
2022-08-03T05:55:05.539Z,988.97
2022-08-03T05:56:14.443Z,988.95
2022-08-03T05:57:06.521Z,988.95
2022-08-03T05:58:05.518Z,988.94
2022-08-03T05:59:28.707Z,988.94
2022-08-03T06:00:06.494Z,988.94
2022-08-03T06:01:05.572Z,988.95
2022-08-03T06:02:05.611Z,988.94
2022-08-03T06:03:05.471Z,988.94
2022-08-03T06:04:05.459Z,988.95
2022-08-03T06:05:05.490Z,988.95
2022-08-03T06:06:05.456Z,988.96
2022-08-03T06:07:05.438Z,988.95
2022-08-03T06:08:05.433Z,988.94
2022-08-03T06:09:05.424Z,988.96
2022-08-03T06:10:35.661Z,988.97
2022-08-03T06:11:06.452Z,988.97
2022-08-03T06:12:05.413Z,988.96
2022-08-03T06:13:05.395Z,988.96
2022-08-03T06:14:05.381Z,988.96
2022-08-03T06:15:05.370Z,988.96
2022-08-03T06:16:05.397Z,988.96
2022-08-03T06:17:05.353Z,988.95
2022-08-03T06:18:05.475Z,988.96
2022-08-03T06:19:05.384Z,988.96
2022-08-03T06:20:05.330Z,988.95
2022-08-03T06:21:14.195Z,988.95
2022-08-03T06:23:55.174Z,988.95
2022-08-03T06:24:32.958Z,988.96
2022-08-03T06:25:31.950Z,988.96
2022-08-03T06:26:31.944Z,988.96
2022-08-03T06:27:37.312Z,988.97
2022-08-03T06:28:52.424Z,988.96
2022-08-03T06:29:32.942Z,988.97
2022-08-03T06:30:31.919Z,988.96
2022-08-03T06:31:33.078Z,988.97
2022-08-03T06:32:31.929Z,988.97
2022-08-03T06:34:31.219Z,988.97
2022-08-03T06:34:35.788Z,988.97
2022-08-03T06:35:31.874Z,988.97
2022-08-03T06:36:31.872Z,988.97
2022-08-03T06:37:31.862Z,988.96
2022-08-03T06:38:31.846Z,988.97
2022-08-03T06:39:31.859Z,988.97
2022-08-03T06:40:31.839Z,988.99
2022-08-03T06:41:37.488Z,988.99
2022-08-03T06:42:32.870Z,989.02
2022-08-03T06:43:35.865Z,989.02
2022-08-03T06:44:31.792Z,989.03
2022-08-03T06:45:32.268Z,989.03
2022-08-03T06:46:32.063Z,989.04
2022-08-03T06:47:31.775Z,989.04
2022-08-03T06:48:31.777Z,989.03
2022-08-03T06:49:31.855Z,989.03
2022-08-03T06:50:31.781Z,989.05
2022-08-03T06:52:03.660Z,989.05
2022-08-03T06:52:38.083Z,989.06
2022-08-03T06:53:32.727Z,989.07
2022-08-03T06:54:33.309Z,989.07
2022-08-03T06:55:31.707Z,989.06
2022-08-03T06:56:31.798Z,989.04
2022-08-03T06:57:31.721Z,989.05
2022-08-03T06:58:31.722Z,989.04
2022-08-03T07:00:09.450Z,989.04
2022-08-03T07:00:32.689Z,989.03
2022-08-03T07:01:31.766Z,989.05
2022-08-03T07:02:31.700Z,989.04
2022-08-03T07:03:31.654Z,989.04
2022-08-03T07:04:31.631Z,989.04
2022-08-03T07:05:31.722Z,989.04
2022-08-03T07:06:31.632Z,989.04
2022-08-03T07:07:31.618Z,989.03
2022-08-03T07:08:34.118Z,989.02
2022-08-03T07:09:31.633Z,989.01
2022-08-03T07:10:31.619Z,988.99
2022-08-03T07:11:31.615Z,988.99
2022-08-03T07:12:31.569Z,988.97
2022-08-03T07:13:31.594Z,988.96
2022-08-03T07:14:31.573Z,988.96
2022-08-03T07:15:38.386Z,988.96
2022-08-03T07:16:32.545Z,988.97
2022-08-03T07:17:31.551Z,988.97
2022-08-03T07:18:31.531Z,988.97
2022-08-03T07:19:31.537Z,988.96
2022-08-03T07:20:32.682Z,988.96
2022-08-03T07:21:31.543Z,988.94
2022-08-03T07:22:31.526Z,988.95
2022-08-03T07:23:31.538Z,988.96
2022-08-03T07:24:31.488Z,988.97
2022-08-03T07:25:31.479Z,988.96
2022-08-03T07:26:31.465Z,988.96
2022-08-03T07:27:31.491Z,988.97
2022-08-03T07:28:31.445Z,988.96
2022-08-03T07:29:31.433Z,988.95
2022-08-03T07:30:31.643Z,988.95
2022-08-03T07:31:34.412Z,988.93
2022-08-03T07:32:31.680Z,988.92
2022-08-03T07:33:31.437Z,988.93
2022-08-03T07:34:31.400Z,988.94
2022-08-03T07:35:31.487Z,988.95
2022-08-03T07:36:31.384Z,988.95
2022-08-03T07:37:31.405Z,988.94
2022-08-03T07:38:31.372Z,988.94
2022-08-03T07:39:31.397Z,988.94
2022-08-03T07:40:31.663Z,988.96
2022-08-03T07:41:31.364Z,988.95
2022-08-03T07:42:31.346Z,988.96
2022-08-03T07:43:31.367Z,988.97
2022-08-03T07:44:31.346Z,988.97
2022-08-03T07:45:31.315Z,988.97
2022-08-03T07:46:31.309Z,988.97
2022-08-03T07:47:34.920Z,988.97
2022-08-03T07:48:31.325Z,988.96
2022-08-03T07:49:31.369Z,988.95
2022-08-03T07:50:31.300Z,988.94
2022-08-03T07:51:31.310Z,988.93
2022-08-03T07:52:31.267Z,988.92
2022-08-03T07:53:31.259Z,988.93
2022-08-03T07:54:31.263Z,988.93
2022-08-03T07:55:31.258Z,988.92
2022-08-03T07:56:31.246Z,988.91
2022-08-03T07:57:31.273Z,988.90
2022-08-03T07:58:31.222Z,988.88
2022-08-03T07:59:56.970Z,988.87
2022-08-03T08:00:32.215Z,988.87
2022-08-03T08:01:31.274Z,988.87
2022-08-03T08:02:31.219Z,988.87
2022-08-03T08:03:52.446Z,988.86
2022-08-03T08:04:32.182Z,988.85
2022-08-03T08:05:31.175Z,988.84
2022-08-03T08:06:31.219Z,988.84
2022-08-03T08:07:31.148Z,988.84
2022-08-03T08:08:31.145Z,988.83
2022-08-03T08:09:31.147Z,988.83
2022-08-03T08:10:31.122Z,988.83
2022-08-03T08:11:31.121Z,988.82
2022-08-03T08:12:31.170Z,988.80
2022-08-03T08:13:31.126Z,988.79
2022-08-03T08:14:31.107Z,988.79
2022-08-03T08:15:31.090Z,988.79
2022-08-03T08:16:31.900Z,988.78
2022-08-03T08:17:31.081Z,988.77
2022-08-03T08:18:31.065Z,988.78
2022-08-03T08:19:31.097Z,988.76
2022-08-03T08:20:31.715Z,988.77
2022-08-03T08:21:53.673Z,988.76
2022-08-03T08:22:32.053Z,988.77
2022-08-03T08:23:42.670Z,988.76
2022-08-03T08:24:32.045Z,988.75
2022-08-03T08:25:31.092Z,988.74
2022-08-03T08:26:31.019Z,988.74
2022-08-03T08:28:29.285Z,988.74
2022-08-03T08:28:33.746Z,988.73
2022-08-03T08:29:31.004Z,988.71
2022-08-03T08:30:31.000Z,988.69
2022-08-03T08:31:30.995Z,988.69
2022-08-03T08:32:30.959Z,988.65
2022-08-03T08:33:54.225Z,988.67
2022-08-03T08:34:32.378Z,988.66
2022-08-03T08:35:30.966Z,988.66
2022-08-03T08:36:30.919Z,988.67
2022-08-03T08:37:31.471Z,988.67
2022-08-03T08:38:30.921Z,988.68
2022-08-03T08:39:30.891Z,988.68
2022-08-03T08:40:30.895Z,988.68
2022-08-03T08:41:32.137Z,988.68
2022-08-03T08:42:30.884Z,988.67
2022-08-03T08:43:30.897Z,988.65
2022-08-03T08:44:30.910Z,988.64
2022-08-03T08:45:30.911Z,988.65
2022-08-03T08:46:30.858Z,988.65
2022-08-03T08:47:51.181Z,988.65
2022-08-03T08:48:31.824Z,988.65
2022-08-03T08:49:30.916Z,988.65
2022-08-03T08:50:30.937Z,988.66
2022-08-03T08:51:54.415Z,988.66
2022-08-03T08:52:32.241Z,988.66
2022-08-03T08:53:31.393Z,988.66
2022-08-03T08:54:30.797Z,988.64
2022-08-03T08:55:58.976Z,988.62
2022-08-03T08:56:31.913Z,988.63
2022-08-03T08:57:42.323Z,988.61
2022-08-03T08:58:31.753Z,988.60
2022-08-03T08:59:47.894Z,988.60
2022-08-03T09:00:31.761Z,988.58
2022-08-03T09:01:30.813Z,988.57
2022-08-03T09:02:30.744Z,988.56
2022-08-03T09:03:31.119Z,988.55
2022-08-03T09:04:30.722Z,988.53
2022-08-03T09:05:54.574Z,988.52
2022-08-03T09:06:31.681Z,988.51
2022-08-03T09:07:30.793Z,988.50
2022-08-03T09:08:30.688Z,988.51
2022-08-03T09:10:12.246Z,988.50
2022-08-03T09:10:31.691Z,988.51
2022-08-03T09:11:52.529Z,988.50
2022-08-03T09:12:42.036Z,988.50
2022-08-03T09:13:31.649Z,988.49
2022-08-03T09:14:36.961Z,988.48
2022-08-03T09:15:31.617Z,988.46
2022-08-03T09:16:30.621Z,988.48
2022-08-03T09:17:30.687Z,988.47
2022-08-03T09:18:32.168Z,988.48
2022-08-03T09:19:30.771Z,988.47
2022-08-03T09:20:30.575Z,988.47
2022-08-03T09:21:32.569Z,988.47
2022-08-03T09:22:30.574Z,988.45
2022-08-03T09:24:00.658Z,988.44
2022-08-03T09:24:41.167Z,988.44
2022-08-03T09:25:31.556Z,988.43
2022-08-03T09:26:30.538Z,988.45
2022-08-03T09:27:30.533Z,988.43
2022-08-03T09:28:59.704Z,988.43
2022-08-03T09:29:31.513Z,988.41
2022-08-03T09:30:34.341Z,988.39
2022-08-03T09:31:30.499Z,988.37
2022-08-03T09:32:30.504Z,988.37
2022-08-03T09:33:35.988Z,988.36
2022-08-03T09:34:31.468Z,988.35
2022-08-03T09:35:53.110Z,988.34
2022-08-03T09:36:31.482Z,988.33
2022-08-03T09:38:12.306Z,988.35
2022-08-03T09:38:31.436Z,988.36
2022-08-03T09:39:41.749Z,988.36
2022-08-03T09:40:31.485Z,988.38
2022-08-03T09:41:30.512Z,988.36
2022-08-03T09:42:30.408Z,988.36
2022-08-03T09:43:30.399Z,988.35
2022-08-03T09:44:30.395Z,988.34
2022-08-03T09:45:30.385Z,988.34
2022-08-03T09:46:30.424Z,988.35
2022-08-03T09:47:30.393Z,988.34
2022-08-03T09:48:30.395Z,988.34
2022-08-03T09:49:30.394Z,988.34
2022-08-03T09:50:30.384Z,988.34
2022-08-03T09:52:24.737Z,988.32
2022-08-03T09:52:49.317Z,988.32
2022-08-03T09:53:31.364Z,988.30
2022-08-03T09:54:30.306Z,988.31
2022-08-03T09:56:33.494Z,988.28
2022-08-03T09:56:36.380Z,988.28
2022-08-03T09:57:31.283Z,988.25
2022-08-03T09:58:30.306Z,988.25
2022-08-03T09:59:30.287Z,988.26
2022-08-03T10:00:30.261Z,988.26
2022-08-03T10:01:30.335Z,988.23
2022-08-03T10:02:30.239Z,988.23
2022-08-03T10:03:30.261Z,988.22
2022-08-03T10:04:30.263Z,988.22
2022-08-03T10:05:30.232Z,988.23
2022-08-03T10:06:30.224Z,988.22
2022-08-03T10:07:30.219Z,988.21
2022-08-03T10:08:30.213Z,988.20
2022-08-03T10:09:30.200Z,988.18
2022-08-03T10:10:32.221Z,988.19
2022-08-03T10:11:30.181Z,988.20
2022-08-03T10:12:30.170Z,988.20
2022-08-03T10:13:30.166Z,988.19
2022-08-03T10:14:30.173Z,988.19
2022-08-03T10:16:23.956Z,988.17
2022-08-03T10:16:31.170Z,988.15
2022-08-03T10:17:30.131Z,988.14
2022-08-03T10:18:30.130Z,988.12
2022-08-03T10:19:30.125Z,988.11
2022-08-03T10:20:30.142Z,988.11
2022-08-03T10:21:30.112Z,988.10
2022-08-03T10:22:30.164Z,988.10
2022-08-03T10:23:33.525Z,988.08
2022-08-03T10:24:30.118Z,988.09
2022-08-03T10:25:33.369Z,988.06
2022-08-03T10:26:30.101Z,988.05
2022-08-03T10:27:30.067Z,988.05
2022-08-03T10:28:30.053Z,988.05
2022-08-03T10:29:30.061Z,988.04
2022-08-03T10:30:30.101Z,988.05
2022-08-03T10:31:30.030Z,988.05
2022-08-03T10:32:30.218Z,988.03
2022-08-03T10:33:51.532Z,988.04
2022-08-03T10:34:31.083Z,988.02
2022-08-03T10:35:30.004Z,988.01
2022-08-03T10:36:30.050Z,988.02
2022-08-03T10:37:30.018Z,987.99
2022-08-03T10:38:30.008Z,987.98
2022-08-03T10:39:30.009Z,987.95
2022-08-03T10:40:59.880Z,987.94
2022-08-03T10:41:30.966Z,987.92
2022-08-03T10:42:30.024Z,987.90
2022-08-03T10:43:29.944Z,987.88
2022-08-03T10:44:29.966Z,987.88
2022-08-03T10:45:29.932Z,987.88
2022-08-03T10:46:29.940Z,987.90
2022-08-03T10:47:29.915Z,987.86
2022-08-03T10:48:29.903Z,987.85
2022-08-03T10:49:35.248Z,987.84
2022-08-03T10:50:30.894Z,987.84
2022-08-03T10:51:29.881Z,987.80
2022-08-03T10:52:32.506Z,987.74
2022-08-03T10:53:29.879Z,987.73
2022-08-03T10:54:29.882Z,987.75
2022-08-03T10:55:29.879Z,987.73
2022-08-03T10:56:41.518Z,987.74
2022-08-03T10:57:30.838Z,987.72
2022-08-03T10:58:30.781Z,987.77
2022-08-03T10:59:29.816Z,987.76
2022-08-03T11:00:29.854Z,987.75
2022-08-03T11:01:58.717Z,987.74
2022-08-03T11:02:30.833Z,987.73
2022-08-03T11:03:30.016Z,987.73
2022-08-03T11:04:30.523Z,987.72
2022-08-03T11:05:29.781Z,987.69
2022-08-03T11:06:37.220Z,987.68
2022-08-03T11:07:30.822Z,987.71
2022-08-03T11:08:29.770Z,987.73
2022-08-03T11:09:29.740Z,987.71
2022-08-03T11:10:29.745Z,987.71
2022-08-03T11:11:29.736Z,987.68
2022-08-03T11:12:31.111Z,987.68
2022-08-03T11:13:29.748Z,987.63
2022-08-03T11:14:29.727Z,987.64
2022-08-03T11:15:29.700Z,987.64
2022-08-03T11:16:29.719Z,987.62
2022-08-03T11:17:29.696Z,987.66
2022-08-03T11:18:29.695Z,987.62
2022-08-03T11:19:29.700Z,987.62
2022-08-03T11:20:29.692Z,987.61
2022-08-03T11:21:30.498Z,987.59
2022-08-03T11:22:29.665Z,987.56
2022-08-03T11:24:04.630Z,987.57
2022-08-03T11:24:30.730Z,987.55
2022-08-03T11:25:54.115Z,987.55
2022-08-03T11:26:30.636Z,987.48
2022-08-03T11:27:29.619Z,987.48
2022-08-03T11:28:30.721Z,987.51
2022-08-03T11:29:29.803Z,987.51
2022-08-03T11:30:29.624Z,987.53
2022-08-03T11:32:30.648Z,987.53
2022-08-03T11:33:29.575Z,987.52
2022-08-03T11:34:29.571Z,987.54
2022-08-03T11:35:29.578Z,987.52
2022-08-03T11:36:32.249Z,987.47
2022-08-03T11:37:33.258Z,987.46
2022-08-03T11:38:29.544Z,987.47
2022-08-03T11:39:29.557Z,987.45
2022-08-03T11:40:29.523Z,987.47
2022-08-03T11:41:29.521Z,987.46
2022-08-03T11:42:29.527Z,987.47
2022-08-03T11:43:31.276Z,987.45
2022-08-03T11:44:30.421Z,987.43
2022-08-03T11:45:29.542Z,987.41
2022-08-03T11:46:30.133Z,987.41
2022-08-03T11:47:29.468Z,987.40
2022-08-03T11:48:29.503Z,987.42
2022-08-03T11:49:29.568Z,987.42
2022-08-03T11:50:29.454Z,987.41
2022-08-03T11:51:29.464Z,987.41
2022-08-03T11:52:29.453Z,987.40
2022-08-03T11:53:29.478Z,987.42
2022-08-03T11:54:30.278Z,987.43
2022-08-03T11:55:30.723Z,987.43
2022-08-03T11:56:29.408Z,987.45
2022-08-03T11:59:01.447Z,987.44
2022-08-03T11:59:02.732Z,987.43
2022-08-03T11:59:30.378Z,987.43
2022-08-03T12:00:29.386Z,987.42
2022-08-03T12:01:29.389Z,987.40
2022-08-03T12:02:29.367Z,987.39
2022-08-03T12:03:29.402Z,987.38
2022-08-03T12:04:29.402Z,987.37
2022-08-03T12:05:29.363Z,987.35
2022-08-03T12:06:29.335Z,987.35
2022-08-03T12:08:04.398Z,987.34
2022-08-03T12:08:30.325Z,987.32
2022-08-03T12:09:29.314Z,987.31
2022-08-03T12:10:29.311Z,987.32
2022-08-03T12:11:29.325Z,987.30
2022-08-03T12:12:29.299Z,987.30
2022-08-03T12:14:33.035Z,987.31
2022-08-03T12:14:48.420Z,987.31
2022-08-03T12:15:30.276Z,987.29
2022-08-03T12:16:29.312Z,987.27
2022-08-03T12:17:29.293Z,987.33
2022-08-03T12:18:29.254Z,987.35
2022-08-03T12:19:29.242Z,987.30
2022-08-03T12:20:34.678Z,987.26
2022-08-03T12:21:30.242Z,987.25
2022-08-03T12:22:29.250Z,987.26
2022-08-03T12:23:29.270Z,987.26
2022-08-03T12:24:29.215Z,987.25
2022-08-03T12:25:39.485Z,987.25
2022-08-03T12:26:30.204Z,987.25
2022-08-03T12:27:29.187Z,987.24
2022-08-03T12:28:37.939Z,987.24
2022-08-03T12:29:30.272Z,987.22
2022-08-03T12:30:29.186Z,987.20